createdAt,value
2022-12-13T00:01:28.074Z,-2.43
2022-12-13T00:04:02.974Z,-2.47
2022-12-13T00:06:30.740Z,-2.51
2022-12-13T00:08:58.086Z,-2.52
2022-12-13T00:11:24.598Z,-2.57
2022-12-13T00:13:51.266Z,-2.62
2022-12-13T00:16:22.235Z,-2.66
2022-12-13T00:18:56.822Z,-2.69
2022-12-13T00:21:26.138Z,-2.72
2022-12-13T00:23:52.732Z,-2.75
2022-12-13T00:26:21.630Z,-2.76
2022-12-13T00:28:49.440Z,-2.79
2022-12-13T00:34:04.803Z,-2.84
2022-12-13T00:36:31.233Z,-2.86
2022-12-13T00:39:00.532Z,-2.89
2022-12-13T00:41:32.082Z,-2.91
2022-12-13T00:44:01.189Z,-2.92
2022-12-13T00:46:29.745Z,-2.93
2022-12-13T00:48:58.888Z,-2.96
2022-12-13T00:51:27.450Z,-2.97
2022-12-13T00:53:56.481Z,-2.98
2022-12-13T00:56:27.962Z,-2.99
2022-12-13T00:58:55.431Z,-3.02
2022-12-13T01:01:26.015Z,-3.05
2022-12-13T01:03:57.359Z,-3.08
2022-12-13T01:06:34.629Z,-3.10
2022-12-13T01:09:02.924Z,-3.15
2022-12-13T01:11:29.574Z,-3.19
2022-12-13T01:13:56.082Z,-3.21
2022-12-13T01:16:28.421Z,-3.22
2022-12-13T01:18:57.468Z,-3.23
2022-12-13T01:21:24.704Z,-3.25
2022-12-13T01:23:51.251Z,-3.25
2022-12-13T01:26:21.972Z,-3.24
2022-12-13T01:28:49.056Z,-3.23
2022-12-13T01:31:18.800Z,-3.21
2022-12-13T01:33:45.621Z,-3.19
2022-12-13T01:36:15.306Z,-3.16
2022-12-13T01:38:42.110Z,-3.12
2022-12-13T01:41:18.156Z,-3.08
2022-12-13T01:43:44.926Z,-3.07
2022-12-13T01:46:12.591Z,-3.02
2022-12-13T01:48:44.339Z,-2.99
2022-12-13T01:51:14.985Z,-2.96
2022-12-13T01:53:43.997Z,-2.92
2022-12-13T01:56:16.149Z,-2.87
2022-12-13T01:58:42.922Z,-2.82
2022-12-13T02:01:10.214Z,-2.80
2022-12-13T02:03:37.507Z,-2.75
2022-12-13T02:06:14.275Z,-2.71
2022-12-13T02:08:43.785Z,-2.68
2022-12-13T02:11:11.218Z,-2.64
2022-12-13T02:13:37.921Z,-2.61
2022-12-13T02:16:29.044Z,-2.54
2022-12-13T02:18:58.422Z,-2.47
2022-12-13T02:21:34.609Z,-2.41
2022-12-13T02:24:08.639Z,-2.35
2022-12-13T02:26:47.702Z,-2.28
2022-12-13T02:29:48.093Z,-2.23
2022-12-13T02:32:30.057Z,-2.17
2022-12-13T02:34:59.451Z,-2.11
2022-12-13T02:37:52.843Z,-2.06
2022-12-13T02:40:34.635Z,-2.00
2022-12-13T02:43:07.063Z,-1.94
2022-12-13T02:45:55.423Z,-1.90
2022-12-13T02:48:27.701Z,-1.86
2022-12-13T02:50:55.185Z,-1.83
2022-12-13T02:53:23.291Z,-1.78
2022-12-13T02:55:49.835Z,-1.76
2022-12-13T02:58:22.659Z,-1.74
2022-12-13T03:01:02.721Z,-1.73
2022-12-13T03:03:34.939Z,-1.71
2022-12-13T03:06:33.598Z,-1.65
2022-12-13T03:09:20.457Z,-1.61
2022-12-13T03:12:17.684Z,-1.55
2022-12-13T03:15:09.127Z,-1.53
2022-12-13T03:17:44.010Z,-1.52
2022-12-13T03:20:22.883Z,-1.53
2022-12-13T03:22:51.376Z,-1.50
2022-12-13T03:25:31.306Z,-1.48
2022-12-13T03:28:01.210Z,-1.47
2022-12-13T03:30:31.360Z,-1.45
2022-12-13T03:32:57.820Z,-1.45
2022-12-13T03:35:25.112Z,-1.45
2022-12-13T03:38:01.945Z,-1.45
2022-12-13T03:40:30.309Z,-1.47
2022-12-13T03:42:57.082Z,-1.50
2022-12-13T03:45:23.931Z,-1.54
2022-12-13T03:47:50.395Z,-1.57
2022-12-13T03:50:26.278Z,-1.62
2022-12-13T03:53:01.048Z,-1.62
2022-12-13T03:55:28.035Z,-1.63
2022-12-13T03:57:54.435Z,-1.65
2022-12-13T04:00:21.500Z,-1.68
2022-12-13T04:02:47.952Z,-1.72
2022-12-13T04:05:14.824Z,-1.73
2022-12-13T04:07:47.986Z,-1.78
2022-12-13T04:10:26.251Z,-1.81
2022-12-13T04:13:12.839Z,-1.86
2022-12-13T04:15:39.839Z,-1.94
2022-12-13T04:18:06.796Z,-2.03
2022-12-13T04:20:33.214Z,-2.09
2022-12-13T04:22:59.776Z,-2.19
2022-12-13T04:25:26.699Z,-2.27
2022-12-13T04:27:53.112Z,-2.40
2022-12-13T04:30:19.632Z,-2.49
2022-12-13T04:32:46.033Z,-2.59
2022-12-13T04:35:12.953Z,-2.66
2022-12-13T04:37:39.683Z,-2.75
2022-12-13T04:40:10.487Z,-2.81
2022-12-13T04:42:36.886Z,-2.86
2022-12-13T04:45:03.894Z,-2.91
2022-12-13T04:47:30.338Z,-2.97
2022-12-13T04:49:56.880Z,-3.03
2022-12-13T04:52:23.316Z,-3.08
2022-12-13T04:54:55.593Z,-3.13
2022-12-13T04:57:22.833Z,-3.19
2022-12-13T04:59:49.284Z,-3.23
2022-12-13T05:02:23.778Z,-3.26
2022-12-13T05:04:53.573Z,-3.31
2022-12-13T05:07:21.058Z,-3.34
2022-12-13T05:09:47.492Z,-3.37
2022-12-13T05:12:22.639Z,-3.40
2022-12-13T05:14:50.467Z,-3.44
2022-12-13T05:17:16.854Z,-3.47
2022-12-13T05:19:43.358Z,-3.50
2022-12-13T05:22:19.712Z,-3.50
2022-12-13T05:24:48.015Z,-3.52
2022-12-13T05:27:24.484Z,-3.57
2022-12-13T05:30:02.884Z,-3.60
2022-12-13T05:32:44.165Z,-3.63
2022-12-13T05:35:22.290Z,-3.65
2022-12-13T05:37:53.175Z,-3.67
2022-12-13T05:40:21.610Z,-3.68
2022-12-13T05:42:47.988Z,-3.70
2022-12-13T05:45:16.007Z,-3.70
2022-12-13T05:47:42.599Z,-3.73
2022-12-13T05:50:09.281Z,-3.74
2022-12-13T05:52:35.641Z,-3.78
2022-12-13T05:55:02.288Z,-3.81
2022-12-13T05:57:28.807Z,-3.85
2022-12-13T05:59:55.630Z,-3.89
2022-12-13T06:02:25.054Z,-3.92
2022-12-13T06:04:52.513Z,-3.95
2022-12-13T06:07:20.995Z,-3.96
2022-12-13T06:09:47.523Z,-4.00
2022-12-13T06:12:31.411Z,-4.03
2022-12-13T06:17:39.349Z,-4.09
2022-12-13T06:20:24.190Z,-4.11
2022-12-13T06:22:53.651Z,-4.14
2022-12-13T06:25:30.760Z,-4.18
2022-12-13T06:28:01.235Z,-4.22
2022-12-13T06:30:29.143Z,-4.23
2022-12-13T06:32:56.098Z,-4.25
2022-12-13T06:35:27.843Z,-4.27
2022-12-13T06:38:01.365Z,-4.29
2022-12-13T06:40:30.271Z,-4.29
2022-12-13T06:42:57.296Z,-4.31
2022-12-13T06:45:23.840Z,-4.31
2022-12-13T06:47:50.276Z,-4.30
2022-12-13T06:50:16.901Z,-4.30
2022-12-13T06:52:46.360Z,-4.30
2022-12-13T06:55:12.989Z,-4.32
2022-12-13T06:57:40.759Z,-4.31
2022-12-13T07:00:09.460Z,-4.32
2022-12-13T07:02:37.885Z,-4.31
2022-12-13T07:05:04.742Z,-4.31
2022-12-13T07:07:31.131Z,-4.31
2022-12-13T07:09:57.611Z,-4.32
2022-12-13T07:12:24.306Z,-4.33
2022-12-13T07:14:50.762Z,-4.35
2022-12-13T07:17:33.511Z,-4.36
2022-12-13T07:20:02.758Z,-4.39
2022-12-13T07:22:29.218Z,-4.39
2022-12-13T07:25:01.422Z,-4.41
2022-12-13T07:27:27.790Z,-4.43
2022-12-13T07:29:54.150Z,-4.45
2022-12-13T07:32:20.520Z,-4.45
2022-12-13T07:34:46.875Z,-4.46
2022-12-13T07:37:29.546Z,-4.45
2022-12-13T07:40:02.869Z,-4.47
2022-12-13T07:42:30.593Z,-4.47
2022-12-13T07:44:57.021Z,-4.47
2022-12-13T07:47:23.485Z,-4.46
2022-12-13T07:49:49.956Z,-4.46
2022-12-13T07:52:16.441Z,-4.48
2022-12-13T07:54:43.093Z,-4.47
2022-12-13T07:57:09.624Z,-4.47
2022-12-13T07:59:36.594Z,-4.46
2022-12-13T08:02:03.267Z,-4.43
2022-12-13T08:04:29.771Z,-4.40
2022-12-13T08:07:07.119Z,-4.36
2022-12-13T08:09:33.480Z,-4.35
2022-12-13T08:12:01.398Z,-4.31
2022-12-13T08:14:27.957Z,-4.27
2022-12-13T08:16:54.392Z,-4.24
2022-12-13T08:19:20.893Z,-4.18
2022-12-13T08:21:56.789Z,-4.15
2022-12-13T08:24:26.016Z,-4.11
2022-12-13T08:26:52.627Z,-4.07
2022-12-13T08:29:32.133Z,-4.03
2022-12-13T08:32:06.093Z,-4.00
2022-12-13T08:34:32.602Z,-3.97
2022-12-13T08:37:01.898Z,-3.92
2022-12-13T08:39:30.201Z,-3.88
2022-12-13T08:42:00.412Z,-3.81
2022-12-13T08:44:42.321Z,-3.75
2022-12-13T08:47:09.076Z,-3.68
2022-12-13T08:49:35.455Z,-3.61
2022-12-13T08:52:01.825Z,-3.54
2022-12-13T08:54:31.734Z,-3.47
2022-12-13T08:56:58.351Z,-3.41
2022-12-13T08:59:26.012Z,-3.33
2022-12-13T09:01:53.984Z,-3.26
2022-12-13T09:04:31.686Z,-3.18
2022-12-13T09:07:01.193Z,-3.09
2022-12-13T09:09:29.082Z,-2.99
2022-12-13T09:11:59.648Z,-2.90
2022-12-13T09:14:34.105Z,-2.82
2022-12-13T09:17:02.896Z,-2.70
2022-12-13T09:19:37.094Z,-2.60
2022-12-13T09:22:04.940Z,-2.48
2022-12-13T09:24:36.675Z,-2.32
2022-12-13T09:27:09.573Z,-2.21
2022-12-13T09:29:37.237Z,-2.11
2022-12-13T09:32:03.963Z,-2.05
2022-12-13T09:34:32.883Z,-1.92
2022-12-13T09:37:01.636Z,-1.88
2022-12-13T09:39:29.038Z,-1.75
2022-12-13T09:42:01.418Z,-1.63
2022-12-13T09:44:42.458Z,-1.41
2022-12-13T09:47:23.841Z,-1.14
2022-12-13T09:49:52.139Z,-0.96
2022-12-13T09:52:23.327Z,-0.71
2022-12-13T09:54:56.055Z,-0.42
2022-12-13T09:57:40.877Z,-0.22
2022-12-13T10:00:14.278Z,0.19
2022-12-13T10:02:57.087Z,0.38
2022-12-13T10:05:37.221Z,0.64
2022-12-13T10:08:24.191Z,0.79
2022-12-13T10:10:53.024Z,0.92
2022-12-13T10:13:45.772Z,1.12
2022-12-13T10:16:23.387Z,1.17
2022-12-13T10:18:51.001Z,1.18
2022-12-13T10:21:22.878Z,1.43
2022-12-13T10:26:37.816Z,1.87
2022-12-13T10:29:06.529Z,2.05
2022-12-13T10:31:45.391Z,2.29
2022-12-13T10:34:21.617Z,2.45
2022-12-13T10:36:48.387Z,2.58
2022-12-13T10:39:18.403Z,2.62
2022-12-13T10:41:47.456Z,2.79
2022-12-13T10:44:13.810Z,2.72
2022-12-13T10:46:42.797Z,2.46
2022-12-13T10:50:01.765Z,2.67
2022-12-13T10:52:34.344Z,2.89
2022-12-13T10:55:26.581Z,2.53
2022-12-13T10:57:56.581Z,2.66
2022-12-13T11:00:45.510Z,2.86
2022-12-13T11:03:32.494Z,3.26
2022-12-13T11:06:04.966Z,3.38
2022-12-13T11:08:31.406Z,3.73
2022-12-13T11:11:05.995Z,3.18
2022-12-13T11:13:44.768Z,3.02
2022-12-13T11:16:21.799Z,2.75
2022-12-13T11:18:54.197Z,2.70
2022-12-13T11:21:29.766Z,2.63
2022-12-13T11:24:02.001Z,2.74
2022-12-13T11:26:31.023Z,3.00
2022-12-13T11:29:18.991Z,3.12
2022-12-13T11:32:07.889Z,3.13
2022-12-13T11:35:02.694Z,3.22
2022-12-13T11:37:44.114Z,3.31
2022-12-13T11:40:16.108Z,3.29
2022-12-13T11:42:51.750Z,3.36
2022-12-13T11:45:27.705Z,3.17
2022-12-13T11:48:09.453Z,3.62
2022-12-13T11:50:37.058Z,3.95
2022-12-13T11:53:06.455Z,4.30
2022-12-13T11:55:40.346Z,4.48
2022-12-13T12:01:21.347Z,4.57
2022-12-13T12:03:57.666Z,4.79
2022-12-13T12:06:29.491Z,5.28
2022-12-13T12:09:10.710Z,5.46
2022-12-13T12:11:53.981Z,5.80
2022-12-13T12:14:29.475Z,5.90
2022-12-13T12:16:58.928Z,5.85
2022-12-13T12:19:33.895Z,5.75
2022-12-13T12:22:30.924Z,5.97
2022-12-13T12:25:13.857Z,5.81
2022-12-13T12:27:48.192Z,6.57
2022-12-13T12:30:24.400Z,6.67
2022-12-13T12:32:50.965Z,6.91
2022-12-13T12:35:45.673Z,6.89
2022-12-13T12:39:01.547Z,6.69
2022-12-13T12:41:45.565Z,6.27
2022-12-13T12:44:33.954Z,6.54
2022-12-13T12:47:57.563Z,6.06
2022-12-13T12:50:34.422Z,6.08
2022-12-13T12:53:22.581Z,6.43
2022-12-13T12:56:11.358Z,6.72
2022-12-13T12:58:55.187Z,6.44
2022-12-13T13:01:37.692Z,6.68
2022-12-13T13:04:14.091Z,6.94
2022-12-13T13:07:23.400Z,6.64
2022-12-13T13:09:54.858Z,6.23
2022-12-13T13:12:29.536Z,5.87
2022-12-13T13:14:57.545Z,5.37
2022-12-13T13:17:23.886Z,4.91
2022-12-13T13:20:12.134Z,4.81
2022-12-13T13:22:44.450Z,4.38
2022-12-13T13:25:25.979Z,4.23
2022-12-13T13:28:01.728Z,4.12
2022-12-13T13:30:28.591Z,4.12
2022-12-13T13:32:57.957Z,4.10
2022-12-13T13:35:33.427Z,3.99
2022-12-13T13:38:05.056Z,3.90
2022-12-13T13:40:34.368Z,3.74
2022-12-13T13:43:06.628Z,3.67
2022-12-13T13:45:51.424Z,3.65
2022-12-13T13:48:55.628Z,3.59
2022-12-13T13:51:54.867Z,3.68
2022-12-13T13:54:46.374Z,3.69
2022-12-13T13:58:00.372Z,3.78
2022-12-13T14:00:28.642Z,3.72
2022-12-13T14:03:33.770Z,3.60
2022-12-13T14:06:06.709Z,3.46
2022-12-13T14:09:01.571Z,3.28
2022-12-13T14:12:06.176Z,3.16
2022-12-13T14:15:01.380Z,3.07
2022-12-13T14:18:03.293Z,3.05
2022-12-13T14:20:45.201Z,3.03
2022-12-13T14:23:48.402Z,2.98
2022-12-13T14:26:28.906Z,2.90
2022-12-13T14:29:00.931Z,2.85
2022-12-13T14:31:37.244Z,2.83
2022-12-13T14:34:07.396Z,2.79
2022-12-13T14:36:36.601Z,2.76
2022-12-13T14:39:24.504Z,2.72
2022-12-13T14:41:56.688Z,2.71
2022-12-13T14:44:29.546Z,2.68
2022-12-13T14:47:01.807Z,2.66
2022-12-13T14:49:31.014Z,2.62
2022-12-13T14:52:27.199Z,2.56
2022-12-13T14:54:58.064Z,2.50
2022-12-13T14:57:28.547Z,2.39
2022-12-13T14:59:57.201Z,2.33
2022-12-13T15:02:31.321Z,2.24
2022-12-13T15:05:01.232Z,2.16
2022-12-13T15:07:32.747Z,2.04
2022-12-13T15:10:02.576Z,1.96
2022-12-13T15:12:29.922Z,1.89
2022-12-13T15:15:04.031Z,1.82
2022-12-13T15:17:34.314Z,1.70
2022-12-13T15:20:01.305Z,1.63
2022-12-13T15:22:29.420Z,1.51
2022-12-13T15:24:57.877Z,1.42
2022-12-13T15:27:25.167Z,1.34
2022-12-13T15:29:54.151Z,1.26
2022-12-13T15:32:24.861Z,1.21
2022-12-13T15:34:51.894Z,1.18
2022-12-13T15:37:45.954Z,1.07
2022-12-13T15:40:14.826Z,1.03
2022-12-13T15:42:47.036Z,1.02
2022-12-13T15:45:22.732Z,0.96
2022-12-13T15:47:51.163Z,0.92
2022-12-13T15:50:36.379Z,0.89
2022-12-13T15:53:19.392Z,0.80
2022-12-13T15:55:46.670Z,0.78
2022-12-13T15:58:26.312Z,0.73
2022-12-13T16:00:53.192Z,0.67
2022-12-13T16:03:24.725Z,0.67
2022-12-13T16:05:54.833Z,0.62
2022-12-13T16:08:28.943Z,0.58
2022-12-13T16:10:56.835Z,0.51
2022-12-13T16:13:34.181Z,0.46
2022-12-13T16:16:09.186Z,0.44
2022-12-13T16:18:51.646Z,0.39
2022-12-13T16:21:18.135Z,0.35
2022-12-13T16:23:48.314Z,0.34
2022-12-13T16:26:25.952Z,0.33
2022-12-13T16:28:54.013Z,0.30
2022-12-13T16:31:23.454Z,0.27
2022-12-13T16:33:49.916Z,0.25
2022-12-13T16:36:16.359Z,0.23
2022-12-13T16:38:42.782Z,0.23
2022-12-13T16:41:10.022Z,0.23
2022-12-13T16:44:01.005Z,0.22
2022-12-13T16:47:17.115Z,0.20
2022-12-13T16:49:22.210Z,0.20
2022-12-13T16:51:49.232Z,0.20
2022-12-13T16:54:17.093Z,0.19
2022-12-13T16:56:43.583Z,0.15
2022-12-13T16:59:22.254Z,0.16
2022-12-13T17:01:50.254Z,0.13
2022-12-13T17:04:21.122Z,0.14
2022-12-13T17:06:50.169Z,0.11
2022-12-13T17:09:17.006Z,0.10
2022-12-13T17:11:43.491Z,0.07
2022-12-13T17:14:10.227Z,0.03
2022-12-13T17:16:36.825Z,0.04
2022-12-13T17:19:03.593Z,0.03
2022-12-13T17:21:30.346Z,0.02
2022-12-13T17:23:58.391Z,0.00
2022-12-13T17:26:25.609Z,-0.01
2022-12-13T17:28:52.454Z,-0.02
2022-12-13T17:31:19.516Z,-0.06
2022-12-13T17:33:46.343Z,-0.05
2022-12-13T17:36:14.722Z,-0.06
2022-12-13T17:38:45.802Z,-0.07
2022-12-13T17:41:16.246Z,-0.07
2022-12-13T17:43:43.875Z,-0.06
2022-12-13T17:46:13.947Z,-0.05
2022-12-13T17:48:41.633Z,-0.07
2022-12-13T17:51:12.275Z,-0.05
2022-12-13T17:53:40.039Z,-0.06
2022-12-13T17:56:08.415Z,-0.06
2022-12-13T17:58:35.543Z,-0.10
2022-12-13T18:01:22.030Z,-0.08
2022-12-13T18:03:51.334Z,-0.09
2022-12-13T18:06:18.113Z,-0.07
2022-12-13T18:08:45.556Z,-0.06
2022-12-13T18:11:32.480Z,-0.05
2022-12-13T18:14:01.452Z,-0.08
2022-12-13T18:16:35.769Z,-0.09
2022-12-13T18:19:03.918Z,-0.09
2022-12-13T18:21:30.379Z,-0.12
2022-12-13T18:23:58.863Z,-0.14
2022-12-13T18:26:25.338Z,-0.13
2022-12-13T18:28:52.376Z,-0.11
2022-12-13T18:31:22.226Z,-0.11
2022-12-13T18:33:50.693Z,-0.16
2022-12-13T18:36:18.461Z,-0.18
2022-12-13T18:38:45.306Z,-0.18
2022-12-13T18:41:17.217Z,-0.16
2022-12-13T18:43:44.794Z,-0.16
2022-12-13T18:46:13.321Z,-0.17
2022-12-13T18:48:40.462Z,-0.20
2022-12-13T18:51:09.588Z,-0.22
2022-12-13T18:53:37.233Z,-0.22
2022-12-13T18:56:06.109Z,-0.22
2022-12-13T18:58:33.441Z,-0.24
2022-12-13T19:01:00.194Z,-0.23
2022-12-13T19:03:27.294Z,-0.24
2022-12-13T19:05:56.525Z,-0.25
2022-12-13T19:08:26.110Z,-0.26
2022-12-13T19:10:55.781Z,-0.27
2022-12-13T19:13:25.073Z,-0.29
2022-12-13T19:15:53.956Z,-0.28
2022-12-13T19:18:21.014Z,-0.28
2022-12-13T19:20:49.235Z,-0.29
2022-12-13T19:23:16.337Z,-0.32
2022-12-13T19:25:42.872Z,-0.32
2022-12-13T19:28:11.048Z,-0.31
2022-12-13T19:30:38.585Z,-0.31
2022-12-13T19:33:06.789Z,-0.31
2022-12-13T19:35:33.738Z,-0.32
2022-12-13T19:38:00.278Z,-0.31
2022-12-13T19:40:26.943Z,-0.31
2022-12-13T19:42:53.338Z,-0.35
2022-12-13T19:45:19.840Z,-0.37
2022-12-13T19:47:48.879Z,-0.36
2022-12-13T19:50:15.442Z,-0.37
2022-12-13T19:52:41.841Z,-0.39
2022-12-13T19:55:08.600Z,-0.37
2022-12-13T19:57:35.622Z,-0.38
2022-12-13T20:00:02.069Z,-0.37
2022-12-13T20:02:28.644Z,-0.35
2022-12-13T20:04:55.119Z,-0.35
2022-12-13T20:07:21.663Z,-0.33
2022-12-13T20:09:48.099Z,-0.32
2022-12-13T20:12:14.519Z,-0.31
2022-12-13T20:14:40.972Z,-0.32
2022-12-13T20:17:08.131Z,-0.29
2022-12-13T20:19:34.564Z,-0.30
2022-12-13T20:22:01.033Z,-0.29
2022-12-13T20:24:27.411Z,-0.31
2022-12-13T20:26:53.879Z,-0.27
2022-12-13T20:29:21.087Z,-0.25
2022-12-13T20:31:51.264Z,-0.23
2022-12-13T20:34:19.601Z,-0.23
2022-12-13T20:36:46.031Z,-0.24
2022-12-13T20:39:13.484Z,-0.23
2022-12-13T20:41:40.328Z,-0.25
2022-12-13T20:44:08.509Z,-0.24
2022-12-13T20:46:35.312Z,-0.24
2022-12-13T20:49:03.881Z,-0.23
2022-12-13T20:51:32.123Z,-0.24
2022-12-13T20:53:58.850Z,-0.25
2022-12-13T20:56:32.604Z,-0.24
2022-12-13T20:58:59.014Z,-0.25
2022-12-13T21:01:28.211Z,-0.23
2022-12-13T21:03:56.170Z,-0.22
2022-12-13T21:06:23.044Z,-0.24
2022-12-13T21:08:52.125Z,-0.23
2022-12-13T21:11:26.455Z,-0.27
2022-12-13T21:14:08.255Z,-0.31
2022-12-13T21:16:45.185Z,-0.34
2022-12-13T21:19:17.797Z,-0.37
2022-12-13T21:21:44.248Z,-0.43
2022-12-13T21:24:14.538Z,-0.43
2022-12-13T21:26:41.788Z,-0.45
2022-12-13T21:29:10.909Z,-0.48
2022-12-13T21:31:38.101Z,-0.51
2022-12-13T21:34:06.127Z,-0.52
2022-12-13T21:36:35.206Z,-0.55
2022-12-13T21:39:05.297Z,-0.57
2022-12-13T21:41:31.838Z,-0.58
2022-12-13T21:44:00.376Z,-0.59
2022-12-13T21:46:47.824Z,-0.60
2022-12-13T21:49:15.547Z,-0.61
2022-12-13T21:51:47.428Z,-0.62
2022-12-13T21:54:14.672Z,-0.62
2022-12-13T21:56:59.759Z,-0.62
2022-12-13T21:59:27.693Z,-0.58
2022-12-13T22:02:12.006Z,-0.56
2022-12-13T22:04:47.287Z,-0.59
2022-12-13T22:07:19.255Z,-0.64
2022-12-13T22:09:46.518Z,-0.61
2022-12-13T22:12:23.150Z,-0.64
2022-12-13T22:14:50.227Z,-0.63
2022-12-13T22:17:18.110Z,-0.63
2022-12-13T22:19:48.566Z,-0.63
2022-12-13T22:22:16.399Z,-0.64
2022-12-13T22:24:42.805Z,-0.62
2022-12-13T22:27:09.237Z,-0.61
2022-12-13T22:29:35.772Z,-0.61
2022-12-13T22:32:02.644Z,-0.62
2022-12-13T22:34:29.211Z,-0.59
2022-12-13T22:36:55.689Z,-0.58
2022-12-13T22:39:23.652Z,-0.56
2022-12-13T22:41:51.325Z,-0.57
2022-12-13T22:44:19.391Z,-0.57
2022-12-13T22:46:46.267Z,-0.58
2022-12-13T22:49:13.219Z,-0.61
2022-12-13T22:51:39.851Z,-0.60
2022-12-13T22:54:06.755Z,-0.60
2022-12-13T22:56:33.488Z,-0.59
2022-12-13T22:59:01.927Z,-0.59
2022-12-13T23:01:30.643Z,-0.59
2022-12-13T23:03:57.432Z,-0.57
2022-12-13T23:06:28.987Z,-0.55
2022-12-13T23:08:58.004Z,-0.52
2022-12-13T23:11:43.642Z,-0.53
2022-12-13T23:14:13.803Z,-0.54
2022-12-13T23:16:40.975Z,-0.56
2022-12-13T23:19:40.461Z,-0.56
2022-12-13T23:21:56.764Z,-0.57
2022-12-13T23:24:23.243Z,-0.58
2022-12-13T23:26:49.747Z,-0.59
2022-12-13T23:29:16.193Z,-0.59
2022-12-13T23:31:48.874Z,-0.57
2022-12-13T23:34:15.842Z,-0.56
2022-12-13T23:36:42.508Z,-0.53
2022-12-13T23:39:09.292Z,-0.56
2022-12-13T23:41:36.138Z,-0.57
2022-12-13T23:44:04.346Z,-0.57
2022-12-13T23:46:36.085Z,-0.59
2022-12-13T23:49:05.303Z,-0.60
2022-12-13T23:51:33.031Z,-0.60
2022-12-13T23:53:59.600Z,-0.60
2022-12-13T23:56:26.330Z,-0.58
2022-12-13T23:58:52.773Z,-0.61
